createdAt,value
2023-11-18T00:01:24.833Z,3.50
2023-11-18T00:06:46.680Z,3.50
2023-11-18T00:12:11.491Z,3.60
2023-11-18T00:17:33.428Z,3.50
2023-11-18T00:22:56.482Z,3.50
2023-11-18T00:28:20.760Z,3.60
2023-11-18T00:33:42.727Z,3.40
2023-11-18T00:39:05.676Z,3.40
2023-11-18T00:44:27.690Z,3.40
2023-11-18T00:49:50.766Z,3.40
2023-11-18T00:55:12.591Z,3.40
2023-11-18T01:00:35.574Z,3.50
2023-11-18T01:05:56.880Z,3.60
2023-11-18T01:11:23.472Z,3.60
2023-11-18T01:16:45.533Z,3.60
2023-11-18T01:22:07.820Z,3.60
2023-11-18T01:27:29.289Z,3.80
2023-11-18T01:32:51.259Z,3.70
2023-11-18T01:38:15.782Z,3.70
2023-11-18T01:43:37.655Z,3.60
2023-11-18T01:49:00.174Z,3.60
2023-11-18T01:54:23.012Z,3.70
2023-11-18T01:59:44.548Z,3.70
2023-11-18T02:05:07.501Z,3.60
2023-11-18T02:10:29.359Z,3.70
2023-11-18T02:15:51.226Z,3.40
2023-11-18T02:21:15.427Z,3.60
2023-11-18T02:26:36.884Z,3.40
2023-11-18T02:32:06.704Z,3.50
2023-11-18T02:37:28.637Z,3.60
2023-11-18T02:42:54.293Z,3.50
2023-11-18T02:48:16.815Z,3.60
2023-11-18T02:53:38.633Z,3.40
2023-11-18T02:59:02.105Z,3.50
2023-11-18T03:04:25.162Z,3.40
2023-11-18T03:09:48.123Z,3.60
2023-11-18T03:15:10.654Z,3.60
2023-11-18T03:20:32.678Z,3.50
2023-11-18T03:25:54.130Z,3.60
2023-11-18T03:31:17.289Z,3.60
2023-11-18T03:36:38.845Z,3.70
2023-11-18T03:42:01.164Z,3.70
2023-11-18T03:47:25.247Z,3.60
2023-11-18T03:52:46.466Z,3.60
2023-11-18T03:58:10.310Z,3.50
2023-11-18T04:03:33.129Z,3.60
2023-11-18T04:08:54.851Z,3.40
2023-11-18T04:14:16.077Z,3.50
2023-11-18T04:19:38.807Z,3.40
2023-11-18T04:25:00.612Z,3.40
2023-11-18T04:30:22.201Z,3.20
2023-11-18T04:35:43.724Z,3.30
2023-11-18T04:41:05.751Z,3.30
2023-11-18T04:46:27.769Z,3.30
2023-11-18T04:51:49.369Z,3.20
2023-11-18T04:57:10.790Z,3.10
2023-11-18T05:02:32.194Z,3.30
2023-11-18T05:07:53.913Z,3.20
2023-11-18T05:13:17.729Z,3.20
2023-11-18T05:18:40.287Z,3.10
2023-11-18T05:24:02.001Z,3.20
2023-11-18T05:29:23.516Z,3.20
2023-11-18T05:34:45.104Z,3.10
2023-11-18T05:40:08.180Z,3.30
2023-11-18T05:45:33.196Z,3.20
2023-11-18T05:50:54.941Z,3.30
2023-11-18T05:56:20.008Z,3.30
2023-11-18T06:01:42.487Z,3.30
2023-11-18T06:07:04.309Z,3.20
2023-11-18T06:12:26.038Z,3.20
2023-11-18T06:17:47.705Z,3.20
2023-11-18T06:23:09.112Z,3.10
2023-11-18T06:28:30.502Z,3.10
2023-11-18T06:33:52.630Z,3.20
2023-11-18T06:39:14.705Z,3.30
2023-11-18T06:44:36.377Z,3.20
2023-11-18T06:49:57.880Z,3.10
2023-11-18T06:55:19.521Z,3.30
2023-11-18T07:00:41.041Z,3.30
2023-11-18T07:06:02.578Z,3.30
2023-11-18T07:11:24.165Z,3.30
2023-11-18T07:16:46.222Z,3.40
2023-11-18T07:22:08.132Z,3.40
2023-11-18T07:27:29.547Z,3.50
2023-11-18T07:32:52.244Z,3.30
2023-11-18T07:38:14.289Z,3.30
2023-11-18T07:43:38.012Z,3.40
2023-11-18T07:48:59.854Z,3.30
2023-11-18T07:54:21.339Z,3.50
2023-11-18T07:59:42.888Z,3.50
2023-11-18T08:05:14.574Z,3.60
2023-11-18T08:10:40.580Z,3.50
2023-11-18T08:16:02.790Z,3.70
2023-11-18T08:21:24.465Z,3.70
2023-11-18T08:26:47.188Z,3.80
2023-11-18T08:32:11.606Z,3.70
2023-11-18T08:37:33.538Z,4.00
2023-11-18T08:42:57.574Z,3.90
2023-11-18T08:48:20.077Z,3.90
2023-11-18T08:53:43.789Z,4.10
2023-11-18T08:59:10.018Z,4.20
2023-11-18T09:04:31.344Z,4.20
2023-11-18T09:09:54.161Z,4.20
2023-11-18T09:15:23.708Z,4.10
2023-11-18T09:20:46.675Z,4.40
2023-11-18T09:26:11.846Z,4.50
2023-11-18T09:31:35.007Z,4.60
2023-11-18T09:36:57.109Z,4.70
2023-11-18T09:42:20.887Z,4.50
2023-11-18T09:47:48.682Z,4.60
2023-11-18T09:53:12.574Z,4.60
2023-11-18T09:58:42.833Z,4.70
2023-11-18T10:04:07.749Z,4.80
2023-11-18T10:09:29.744Z,4.70
2023-11-18T10:14:53.384Z,4.50
2023-11-18T10:20:17.432Z,4.80
2023-11-18T10:25:46.382Z,4.90
2023-11-18T10:31:11.049Z,5.10
2023-11-18T10:36:34.485Z,5.20
2023-11-18T10:42:01.769Z,5.40
2023-11-18T10:47:23.332Z,5.50
2023-11-18T10:52:47.512Z,5.60
2023-11-18T10:58:09.621Z,5.50
2023-11-18T11:03:34.761Z,5.50
2023-11-18T11:08:56.344Z,5.40
2023-11-18T11:14:21.337Z,5.20
2023-11-18T11:20:12.565Z,5.30
2023-11-18T11:25:47.793Z,5.20
2023-11-18T11:31:12.318Z,5.30
2023-11-18T11:36:43.555Z,5.30
2023-11-18T11:42:10.615Z,5.30
2023-11-18T11:47:44.704Z,5.30
2023-11-18T11:53:16.559Z,5.30
2023-11-18T11:58:38.586Z,5.30
2023-11-18T12:04:08.414Z,5.30
2023-11-18T12:09:39.268Z,5.40
2023-11-18T12:15:13.640Z,5.40
2023-11-18T12:20:48.973Z,5.30
2023-11-18T12:26:45.129Z,5.30
2023-11-18T12:32:07.268Z,5.30
2023-11-18T12:37:56.237Z,5.30
2023-11-18T12:43:19.090Z,5.50
2023-11-18T12:48:45.427Z,5.60
2023-11-18T12:54:08.443Z,6.00
2023-11-18T12:59:31.708Z,6.30
2023-11-18T13:04:54.289Z,6.60
2023-11-18T13:10:19.478Z,6.80
2023-11-18T13:15:41.683Z,6.70
2023-11-18T13:21:04.439Z,6.70
2023-11-18T13:26:26.102Z,6.70
2023-11-18T13:31:48.670Z,6.60
2023-11-18T13:37:19.254Z,6.70
2023-11-18T13:42:41.089Z,6.50
2023-11-18T13:48:03.355Z,6.50
2023-11-18T13:53:25.062Z,6.50
2023-11-18T13:58:46.861Z,6.50
2023-11-18T14:04:10.338Z,6.10
2023-11-18T14:09:41.721Z,6.20
2023-11-18T14:15:04.922Z,6.10
2023-11-18T14:20:26.402Z,6.10
2023-11-18T14:25:48.457Z,6.00
2023-11-18T14:31:11.111Z,5.80
2023-11-18T14:36:32.762Z,5.70
2023-11-18T14:41:54.894Z,5.60
2023-11-18T14:47:17.951Z,5.40
2023-11-18T14:52:41.617Z,5.40
2023-11-18T14:58:06.116Z,5.20
2023-11-18T15:03:27.616Z,5.10
2023-11-18T15:08:49.138Z,4.90
2023-11-18T15:14:13.071Z,4.80
2023-11-18T15:19:34.610Z,4.70
2023-11-18T15:25:00.744Z,4.50
2023-11-18T15:30:25.847Z,4.40
2023-11-18T15:35:47.369Z,4.20
2023-11-18T15:41:09.002Z,4.10
2023-11-18T15:46:31.008Z,4.00
2023-11-18T15:51:52.784Z,3.80
2023-11-18T15:57:14.496Z,3.80
2023-11-18T16:02:36.583Z,3.60
2023-11-18T16:07:58.544Z,3.60
2023-11-18T16:13:21.326Z,3.60
2023-11-18T16:18:44.058Z,3.60
2023-11-18T16:24:06.304Z,3.60
2023-11-18T16:29:27.928Z,3.60
2023-11-18T16:34:49.471Z,3.60
2023-11-18T16:40:15.570Z,3.50
2023-11-18T16:45:38.486Z,3.50
2023-11-18T16:51:00.643Z,3.50
2023-11-18T16:56:22.025Z,3.40
2023-11-18T17:01:43.553Z,3.50
2023-11-18T17:07:05.402Z,3.50
2023-11-18T17:12:26.712Z,3.50
2023-11-18T17:17:50.997Z,3.50
2023-11-18T17:23:12.864Z,3.60
2023-11-18T17:28:37.516Z,3.60
2023-11-18T17:33:59.268Z,3.50
2023-11-18T17:39:20.871Z,3.60
2023-11-18T17:44:42.612Z,3.60
2023-11-18T17:50:10.489Z,3.70
2023-11-18T17:55:32.459Z,3.80
2023-11-18T18:00:54.552Z,3.80
2023-11-18T18:06:16.548Z,3.90
2023-11-18T18:11:37.859Z,3.90
2023-11-18T18:16:59.631Z,4.00
2023-11-18T18:22:21.058Z,4.00
2023-11-18T18:27:46.490Z,4.00
2023-11-18T18:33:10.101Z,4.00
2023-11-18T18:38:31.535Z,4.10
2023-11-18T18:43:53.107Z,4.10
2023-11-18T18:49:17.489Z,4.20
2023-11-18T18:54:39.006Z,4.20
2023-11-18T19:00:00.456Z,4.20
2023-11-18T19:05:24.782Z,4.20
2023-11-18T19:10:46.335Z,4.30
2023-11-18T19:16:09.066Z,4.30
2023-11-18T19:21:30.550Z,4.30
2023-11-18T19:26:52.046Z,4.30
2023-11-18T19:32:13.654Z,4.30
2023-11-18T19:37:36.021Z,4.40
2023-11-18T19:42:57.419Z,4.40
2023-11-18T19:48:20.849Z,4.50
2023-11-18T19:53:42.515Z,4.50
2023-11-18T19:59:05.959Z,4.50
2023-11-18T20:04:27.981Z,4.60
2023-11-18T20:09:50.270Z,4.50
2023-11-18T20:15:13.153Z,4.60
2023-11-18T20:20:34.866Z,4.60
2023-11-18T20:25:57.406Z,4.60
2023-11-18T20:31:18.609Z,4.60
2023-11-18T20:36:40.973Z,4.60
2023-11-18T20:42:02.522Z,4.60
2023-11-18T20:47:24.402Z,4.60
2023-11-18T20:52:46.434Z,4.60
2023-11-18T20:58:08.473Z,4.60
2023-11-18T21:03:30.247Z,4.50
2023-11-18T21:08:52.212Z,4.50
2023-11-18T21:14:13.650Z,4.50
2023-11-18T21:19:35.137Z,4.50
2023-11-18T21:24:57.817Z,4.50
2023-11-18T21:30:23.309Z,4.60
2023-11-18T21:35:45.646Z,4.40
2023-11-18T21:41:08.135Z,4.50
2023-11-18T21:46:29.575Z,4.50
2023-11-18T21:51:51.396Z,4.40
2023-11-18T21:57:13.944Z,4.50
2023-11-18T22:02:35.712Z,4.40
2023-11-18T22:07:57.604Z,4.40
2023-11-18T22:13:19.229Z,4.30
2023-11-18T22:18:41.585Z,4.40
2023-11-18T22:24:03.291Z,4.40
2023-11-18T22:29:24.839Z,4.30
2023-11-18T22:34:46.552Z,4.30
2023-11-18T22:40:17.348Z,4.20
2023-11-18T22:45:39.132Z,4.20
2023-11-18T22:51:00.881Z,4.10
2023-11-18T22:56:24.947Z,4.00
2023-11-18T23:01:47.367Z,4.10
2023-11-18T23:07:08.743Z,4.00
2023-11-18T23:12:31.290Z,4.00
2023-11-18T23:17:53.198Z,3.70
2023-11-18T23:23:15.060Z,3.70
2023-11-18T23:28:37.037Z,3.80
2023-11-18T23:34:02.406Z,3.70
2023-11-18T23:39:29.805Z,3.70
2023-11-18T23:44:51.224Z,3.60
2023-11-18T23:50:12.901Z,3.60
2023-11-18T23:55:34.568Z,3.60
